createdAt,value
2023-05-20T00:03:07.481Z,101235.38
2023-05-20T00:13:09.783Z,101241.22
2023-05-20T00:23:11.887Z,101248.31
2023-05-20T00:33:13.996Z,101250.41
2023-05-20T00:43:16.416Z,101249.69
2023-05-20T00:53:18.819Z,101241.09
2023-05-20T01:03:21.232Z,101245.66
2023-05-20T01:13:24.661Z,101235.94
2023-05-20T01:23:33.354Z,101224.59
2023-05-20T01:33:36.730Z,101226.50
2023-05-20T01:43:39.838Z,101223.69
2023-05-20T01:53:42.190Z,101214.34
2023-05-20T02:03:44.315Z,101207.00
2023-05-20T02:13:46.485Z,101212.75
2023-05-20T02:23:49.865Z,101222.50
2023-05-20T02:33:52.049Z,101225.78
2023-05-20T02:43:54.433Z,101229.59
2023-05-20T02:53:56.712Z,101224.16
2023-05-20T03:03:59.402Z,101211.69
2023-05-20T03:14:01.676Z,101217.16
2023-05-20T03:24:04.077Z,101211.41
2023-05-20T03:34:06.205Z,101199.44
2023-05-20T03:44:08.590Z,101201.28
2023-05-20T03:54:10.868Z,101198.41
2023-05-20T04:04:14.058Z,101189.06
2023-05-20T04:14:17.370Z,101198.69
2023-05-20T04:24:19.795Z,101199.94
2023-05-20T04:34:26.622Z,101192.41
2023-05-20T04:44:29.812Z,101195.22
2023-05-20T04:54:32.869Z,101195.06
2023-05-20T05:04:35.294Z,101200.06
2023-05-20T05:14:37.899Z,101184.28
2023-05-20T05:24:40.074Z,101197.59
2023-05-20T05:34:42.242Z,101190.34
2023-05-20T05:44:44.728Z,101180.47
2023-05-20T05:54:46.994Z,101172.72
2023-05-20T06:04:49.306Z,101169.81
2023-05-20T06:14:52.766Z,101156.41
2023-05-20T06:25:00.245Z,101152.44
2023-05-20T06:35:02.643Z,101151.03
2023-05-20T06:45:06.383Z,101154.88
2023-05-20T06:55:31.689Z,101153.94
2023-05-20T07:05:34.487Z,101157.09
2023-05-20T07:15:38.396Z,101144.28
2023-05-20T07:25:40.931Z,101146.63
2023-05-20T07:35:44.909Z,101122.41
2023-05-20T07:45:47.847Z,101121.06
2023-05-20T07:55:50.204Z,101125.25
2023-05-20T08:05:53.550Z,101137.41
2023-05-20T08:15:56.079Z,101128.13
2023-05-20T08:26:02.430Z,101106.31
2023-05-20T08:36:08.212Z,101108.97
2023-05-20T08:46:11.554Z,101126.59
2023-05-20T08:56:15.611Z,101113.41
2023-05-20T09:06:21.313Z,101123.13
2023-05-20T09:16:23.461Z,101128.88
2023-05-20T09:26:32.596Z,101111.75
2023-05-20T09:36:37.333Z,101113.88
2023-05-20T09:46:41.236Z,101105.66
2023-05-20T09:56:44.295Z,101111.28
2023-05-20T10:07:14.944Z,101099.88
2023-05-20T10:17:43.465Z,101075.19
2023-05-20T10:27:47.740Z,101070.59
2023-05-20T10:37:49.986Z,101051.97
2023-05-20T10:47:59.986Z,101035.31
2023-05-20T10:58:02.349Z,101028.53
2023-05-20T11:08:20.253Z,101013.25
2023-05-20T11:18:30.525Z,101007.84
2023-05-20T11:28:33.269Z,101007.09
2023-05-20T11:38:35.529Z,100989.09
2023-05-20T11:48:37.637Z,100980.09
2023-05-20T11:58:47.802Z,100967.03
2023-05-20T12:08:51.118Z,100960.16
2023-05-20T12:18:53.499Z,100953.28
2023-05-20T12:28:56.587Z,100951.19
2023-05-20T12:38:59.004Z,100938.81
2023-05-20T12:49:01.195Z,100950.28
2023-05-20T12:59:03.627Z,100926.34
2023-05-20T13:09:05.855Z,100923.28
2023-05-20T13:19:08.031Z,100904.75
2023-05-20T13:29:10.244Z,100895.03
2023-05-20T13:39:12.712Z,100888.50
2023-05-20T13:49:14.946Z,100886.56
2023-05-20T13:59:17.136Z,100896.03
2023-05-20T14:09:19.588Z,100877.41
2023-05-20T14:19:22.015Z,100865.53
2023-05-20T14:29:24.462Z,100854.38
2023-05-20T14:39:26.724Z,100857.22
2023-05-20T14:49:28.836Z,100838.19
2023-05-20T14:59:31.321Z,100833.47
2023-05-20T15:09:34.932Z,100843.72
2023-05-20T15:19:38.961Z,100847.16
2023-05-20T15:29:42.712Z,100850.19
2023-05-20T15:39:44.963Z,100847.97
2023-05-20T15:49:47.313Z,100845.63
2023-05-20T15:59:49.448Z,100847.00
2023-05-20T16:09:51.759Z,100830.50
2023-05-20T16:19:54.181Z,100830.59
2023-05-20T16:29:56.530Z,100829.41
2023-05-20T16:39:58.929Z,100821.59
2023-05-20T16:50:01.470Z,100825.09
2023-05-20T17:00:11.311Z,100820.06
2023-05-20T17:10:13.597Z,100828.53
2023-05-20T17:20:15.869Z,100840.44
2023-05-20T17:30:18.139Z,100854.69
2023-05-20T17:40:20.831Z,100828.28
2023-05-20T17:50:23.233Z,100833.97
2023-05-20T18:00:26.577Z,100836.81
2023-05-20T18:10:29.159Z,100841.16
2023-05-20T18:20:31.384Z,100829.25
2023-05-20T18:30:33.697Z,100843.31
2023-05-20T18:40:38.121Z,100847.13
2023-05-20T18:50:40.575Z,100851.59
2023-05-20T19:00:42.781Z,100862.94
2023-05-20T19:10:45.012Z,100857.72
2023-05-20T19:20:47.266Z,100849.94
2023-05-20T19:30:49.868Z,100847.59
2023-05-20T19:40:52.185Z,100856.84
2023-05-20T19:50:58.151Z,100859.88
2023-05-20T20:01:00.711Z,100859.59
2023-05-20T20:11:03.195Z,100857.50
2023-05-20T20:21:05.699Z,100859.94
2023-05-20T20:31:08.224Z,100852.63
2023-05-20T20:41:10.536Z,100865.19
2023-05-20T20:51:16.401Z,100860.53
2023-05-20T21:01:18.653Z,100858.94
2023-05-20T21:11:22.382Z,100854.63
2023-05-20T21:21:24.532Z,100839.41
2023-05-20T21:31:26.770Z,100837.19
2023-05-20T21:41:29.052Z,100823.66
2023-05-20T21:51:31.539Z,100810.72
2023-05-20T22:01:33.747Z,100806.94
2023-05-20T22:11:37.602Z,100809.97
2023-05-20T22:21:49.609Z,100797.00
2023-05-20T22:31:53.300Z,100796.00
2023-05-20T22:41:55.832Z,100774.25
2023-05-20T22:51:59.243Z,100761.31
2023-05-20T23:02:02.293Z,100756.34
2023-05-20T23:12:04.975Z,100750.69
2023-05-20T23:22:07.158Z,100745.72
2023-05-20T23:32:09.368Z,100730.94
2023-05-20T23:42:11.495Z,100723.13
2023-05-20T23:52:13.689Z,100706.19
